Time;durP1;ratioP1;P1;durP2;ratioP2;P2;SDS_P1;SDS_P2;PMS_P1;PMS_P2;Temp;Humidity;BMP_temperature;BMP_pressure;BME280_temperature;BME280_humidity;BME280_pressure;Samples;Min_cycle;Max_cycle;Signal;HPM_P1;HPM_P2
2023/08/20 07:01:23;;;;;;;0.10;0.10;;;27.60;99.90;33.90;102112.00;;;;6224725;22;1346796;-73
2023/08/20 07:03:49;;;;;;;0.10;0.10;;;28.30;99.90;36.70;102101.00;;;;6309311;22;20576;-73
2023/08/20 07:06:18;;;;;;;0.10;0.10;;;30.20;99.90;38.70;102071.00;;;;6282281;22;20156;-72
2023/08/20 07:08:47;;;;;;;0.10;0.10;;;32.20;99.90;39.30;102045.00;;;;6282731;22;20144;-72
2023/08/20 07:11:13;;;;;;;0.00;0.00;;;33.50;99.90;39.90;102084.00;;;;6281913;22;20155;-73
2023/08/20 07:13:43;;;;;;;0.00;0.00;;;34.20;99.90;39.90;102056.00;;;;6282187;22;20144;-72
2023/08/20 07:16:11;;;;;;;0.00;0.00;;;34.70;99.90;40.70;102169.00;;;;6256587;22;20164;-72
2023/08/20 07:18:40;;;;;;;0.35;0.35;;;35.10;99.90;38.30;102195.00;;;;6256443;22;20221;-73
2023/08/20 07:21:12;;;;;;;1.55;0.68;;;34.80;99.90;33.90;102173.00;;;;6281721;22;20231;-72
2023/08/20 07:23:38;;;;;;;0.00;0.00;;;31.90;99.90;30.10;102222.00;;;;6308651;22;20580;-72
2023/08/20 07:26:13;;;;;;;0.17;0.17;;;28.30;99.90;29.50;102259.00;;;;6309113;22;20160;-73
2023/08/20 07:28:59;;;;;;;0.98;0.90;;;26.50;99.90;33.40;102207.00;;;;6255895;22;20155;-73
2023/08/20 07:31:33;;;;;;;0.00;0.00;;;27.80;99.90;36.70;102192.00;;;;6260125;22;20160;-72
2023/08/20 07:34:02;;;;;;;0.10;0.10;;;30.30;99.90;37.80;102206.00;;;;6282057;22;20151;-72
2023/08/20 07:36:38;;;;;;;0.63;0.63;;;32.00;99.90;32.50;102222.00;;;;6256477;22;20159;-72
2023/08/20 07:39:08;;;;;;;0.10;0.10;;;30.80;99.90;35.40;102208.00;;;;6257407;22;20182;-73
2023/08/20 07:41:37;;;;;;;0.10;0.10;;;30.50;99.90;37.10;102201.00;;;;6281994;22;20136;-72
2023/08/20 07:44:11;;;;;;;0.10;0.10;;;31.50;99.90;38.60;102189.00;;;;6255089;22;20625;-73
2023/08/20 07:46:47;;;;;;;0.55;0.55;;;32.90;99.90;39.20;102190.00;;;;6281839;22;20265;-72
2023/08/20 07:49:16;;;;;;;0.03;0.03;;;33.70;99.90;39.80;102192.00;;;;6281363;22;20152;-72
2023/08/20 07:51:52;;;;;;;0.10;0.10;;;34.50;99.90;39.80;102201.00;;;;6281222;22;20137;-72
2023/08/20 07:54:20;;;;;;;0.10;0.10;;;34.70;99.90;40.80;102198.00;;;;6282130;22;20197;-73
2023/08/20 07:56:54;;;;;;;0.00;0.00;;;35.20;99.90;41.40;102194.00;;;;6281592;22;20533;-72
2023/08/20 07:59:26;;;;;;;0.10;0.10;;;35.70;99.90;37.30;102211.00;;;;6281597;22;20147;-72
2023/08/20 08:01:55;;;;;;;0.10;0.10;;;34.30;99.90;32.80;102237.00;;;;6254250;22;20185;-73
2023/08/20 08:04:43;;;;;;;0.57;0.30;;;31.70;99.90;32.90;102226.00;;;;6277209;22;20140;-71
2023/08/20 08:07:11;;;;;;;0.10;0.10;;;28.80;99.90;31.70;102250.00;;;;6202796;22;20488;-73
2023/08/20 08:09:41;;;;;;;0.85;0.85;;;28.50;99.90;33.10;102237.00;;;;6225565;22;20207;-72
2023/08/20 08:12:10;;;;;;;0.10;0.10;;;28.30;99.90;32.20;102248.00;;;;6250607;22;20157;-72
2023/08/20 08:14:42;;;;;;;0.10;0.10;;;28.20;99.90;34.00;102200.00;;;;6251061;22;20148;-72
2023/08/20 08:17:20;;;;;;;0.10;0.10;;;29.10;99.90;31.50;102245.00;;;;6277598;22;20157;-73
2023/08/20 08:19:46;;;;;;;0.15;0.15;;;28.10;99.90;34.50;102229.00;;;;6226319;22;20164;-72
2023/08/20 08:22:15;;;;;;;0.10;0.10;;;29.30;99.90;35.20;102232.00;;;;6250138;22;20176;-73
2023/08/20 08:24:42;;;;;;;0.10;0.10;;;29.70;99.90;36.80;102218.00;;;;6225441;22;20153;-73
2023/08/20 08:27:25;;;;;;;0.10;0.10;;;31.10;99.90;39.00;102207.00;;;;6250251;22;20144;-72
2023/08/20 08:29:54;;;;;;;0.10;0.10;;;33.00;99.90;37.50;102198.00;;;;6225278;22;20161;-72
2023/08/20 08:32:22;;;;;;;0.10;0.10;;;33.30;99.90;35.50;102202.00;;;;6225196;22;20196;-73
2023/08/20 08:34:52;;;;;;;0.10;0.10;;;32.10;99.90;32.90;102228.00;;;;6277231;22;20169;-72
2023/08/20 08:37:21;;;;;;;0.13;0.13;;;29.80;99.90;31.10;102248.00;;;;6250178;22;20137;-72
2023/08/20 08:39:46;;;;;;;0.10;0.10;;;28.50;99.90;28.70;102281.00;;;;6250466;22;20144;-72
2023/08/20 08:42:14;;;;;;;0.10;0.10;;;26.40;99.90;29.40;102285.00;;;;6224710;22;20177;-72
2023/08/20 08:44:44;;;;;;;0.20;0.20;;;26.10;99.90;33.80;102238.00;;;;6250575;22;20569;-72
2023/08/20 08:47:13;;;;;;;0.10;0.10;;;27.80;99.90;35.20;102243.00;;;;6250252;22;20198;-73
2023/08/20 08:49:44;;;;;;;0.30;0.30;;;29.60;99.90;36.10;102237.00;;;;6250775;22;20637;-72
2023/08/20 08:52:11;;;;;;;0.47;0.47;;;31.00;99.90;34.30;102215.00;;;;6225031;22;20179;-72
2023/08/20 08:54:43;;;;;;;0.10;0.10;;;31.00;99.90;31.10;102261.00;;;;6250467;22;20142;-73
2023/08/20 08:57:17;;;;;;;0.10;0.10;;;28.80;99.90;34.30;102240.00;;;;6251946;22;20581;-73
2023/08/20 08:59:47;;;;;;;0.10;0.10;;;29.00;99.90;34.60;102238.00;;;;6251621;22;20236;-72
2023/08/20 09:02:36;;;;;;;0.10;0.10;;;30.10;99.90;36.20;102224.00;;;;6250030;22;20203;-72
2023/08/20 09:05:06;;;;;;;0.10;0.10;;;31.00;99.90;35.80;102227.00;;;;6224564;22;20211;-72
2023/08/20 09:07:35;;;;;;;3.72;0.85;;;31.40;99.90;36.60;102220.00;;;;6225097;22;20607;-73
2023/08/20 09:10:04;;;;;;;0.10;0.10;;;31.80;99.90;36.90;102234.00;;;;6225524;22;20168;-73
2023/08/20 09:12:34;;;;;;;0.08;0.08;;;32.10;99.90;37.40;102232.00;;;;6250359;22;20153;-73
2023/08/20 09:15:03;;;;;;;0.88;0.85;;;32.60;99.90;32.80;102213.00;;;;6249892;22;20577;-71
2023/08/20 09:17:35;;;;;;;0.10;0.10;;;30.40;99.90;36.10;102220.00;;;;6223894;22;20157;-73
2023/08/20 09:20:07;;;;;;;0.20;0.20;;;30.90;99.90;36.00;102229.00;;;;6249991;22;20224;-71
2023/08/20 09:22:38;;;;;;;0.10;0.10;;;31.50;99.90;32.50;102261.00;;;;6225339;22;20511;-72
2023/08/20 09:25:08;;;;;;;0.73;0.73;;;29.50;99.90;32.10;102261.00;;;;6249663;22;20137;-71
2023/08/20 09:27:42;;;;;;;0.10;0.10;;;28.80;99.90;33.50;102243.00;;;;6250826;22;20148;-73
2023/08/20 09:30:18;;;;;;;0.10;0.10;;;28.90;99.90;36.20;102203.00;;;;6224961;22;20156;-73
2023/08/20 09:33:05;;;;;;;0.10;0.10;;;30.40;99.90;36.30;102239.00;;;;6224697;22;20167;-73
2023/08/20 09:35:36;;;;;;;0.10;0.10;;;31.20;99.90;37.40;102209.00;;;;6250821;22;20145;-72
2023/08/20 09:38:24;;;;;;;0.10;0.10;;;31.90;99.90;38.50;102216.00;;;;6249857;22;20150;-72
2023/08/20 09:41:01;;;;;;;1.75;1.75;;;33.00;99.90;37.90;102242.00;;;;6250208;22;20145;-72
2023/08/20 09:43:30;;;;;;;0.10;0.10;;;33.30;99.90;35.30;102265.00;;;;6249805;22;20168;-72
2023/08/20 09:46:00;;;;;;;0.10;0.10;;;32.40;99.90;32.40;102269.00;;;;6224719;22;20578;-73
2023/08/20 09:48:34;;;;;;;0.08;0.08;;;30.00;99.90;35.20;102246.00;;;;6223931;22;20202;-72
2023/08/20 09:51:10;;;;;;;0.38;0.38;;;30.30;99.90;36.60;102253.00;;;;6250122;22;20465;-72
2023/08/20 09:54:09;;;;;;;0.10;0.10;;;31.20;99.90;37.20;102245.00;;;;6249816;22;20214;-72
2023/08/20 09:56:41;;;;;;;0.10;0.10;;;32.00;99.90;38.40;102231.00;;;;6248750;22;20240;-72
2023/08/20 09:59:12;;;;;;;0.10;0.10;;;33.00;99.90;39.30;102225.00;;;;6224010;22;20163;-72
2023/08/20 10:01:58;;;;;;;0.10;0.10;;;33.70;99.90;39.20;102236.00;;;;6273634;22;20213;-72
2023/08/20 10:04:29;;;;;;;0.10;0.10;;;34.10;99.90;39.20;102229.00;;;;6280357;22;20174;-73
2023/08/20 10:07:16;;;;;;;0.10;0.10;;;34.20;99.90;39.50;102234.00;;;;6280184;22;20167;-72
2023/08/20 10:09:52;;;;;;;0.10;0.10;;;34.50;99.90;40.10;102229.00;;;;6231971;22;20160;-72
2023/08/20 10:12:21;;;;;;;0.20;0.20;;;34.70;99.90;32.30;102273.00;;;;6280589;22;20140;-72
2023/08/20 10:14:50;;;;;;;0.10;0.10;;;31.10;99.90;31.00;102267.00;;;;6254779;22;20153;-72
2023/08/20 10:17:21;;;;;;;0.20;0.20;;;28.70;99.90;29.70;102280.00;;;;6306942;22;20182;-72
2023/08/20 10:20:10;;;;;;;0.10;0.10;;;27.30;99.90;32.30;102265.00;;;;6280841;22;20567;-72
2023/08/20 10:33:26;;;;;;;0.10;0.10;;;28.50;99.90;33.90;102233.00;;;;5070196;28;21150;-72
2023/08/20 10:35:58;;;;;;;0.10;0.10;;;29.50;99.90;36.50;102200.00;;;;5050385;28;20178;-73
2023/08/20 10:38:30;;;;;;;0.10;0.10;;;31.00;99.90;36.30;102229.00;;;;5049030;28;20239;-73
2023/08/20 10:41:05;;;;;;;0.10;0.10;;;31.50;99.90;36.50;102229.00;;;;5056329;28;20647;-73
2023/08/20 10:43:46;;;;;;;0.10;0.10;;;32.20;99.90;36.40;102225.00;;;;5026370;28;20194;-73
2023/08/20 10:46:21;;;;;;;0.10;0.10;;;32.40;99.90;36.30;102215.00;;;;5031807;28;20183;-72
2023/08/20 10:48:57;;;;;;;0.10;0.10;;;31.70;99.90;33.90;102228.00;;;;5048580;28;20185;-73
2023/08/20 10:51:26;;;;;;;0.10;0.10;;;31.40;99.90;35.20;102197.00;;;;5032291;28;20236;-72
2023/08/20 10:54:01;;;;;;;0.10;0.10;;;31.30;99.90;35.60;102215.00;;;;5046955;28;20236;-72
2023/08/20 10:56:47;;;;;;;0.10;0.10;;;31.50;99.90;35.50;102199.00;;;;5049923;28;20186;-72
2023/08/20 10:59:26;;;;;;;0.10;0.10;;;31.40;99.90;36.60;102199.00;;;;5048415;28;20220;-73
2023/08/20 11:02:07;;;;;;;0.10;0.10;;;31.70;99.90;36.60;102203.00;;;;5048134;28;20193;-72
2023/08/20 11:04:42;;;;;;;0.10;0.10;;;32.10;99.90;37.40;102189.00;;;;5048793;28;20421;-70
2023/08/20 11:07:09;;;;;;;0.10;0.10;;;32.80;99.90;38.00;102186.00;;;;5048477;28;20182;-70
2023/08/20 11:10:01;;;;;;;0.20;0.20;;;33.00;99.90;32.60;102212.00;;;;5048452;28;20240;-73
2023/08/20 11:12:50;;;;;;;0.30;0.30;;;31.80;99.90;34.70;102199.00;;;;5048483;28;20194;-73
2023/08/20 11:15:22;;;;;;;0.52;0.25;;;30.40;99.90;36.70;102184.00;;;;5048078;28;20182;-73
2023/08/20 11:18:08;;;;;;;0.10;0.10;;;31.50;99.90;33.80;102200.00;;;;5048605;28;20183;-73
2023/08/20 11:20:38;;;;;;;0.10;0.10;;;31.20;99.90;33.70;102194.00;;;;5027579;28;20612;-73
2023/08/20 11:23:22;;;;;;;0.20;0.20;;;29.80;99.90;33.80;102196.00;;;;5048285;28;20195;-73
2023/08/20 11:26:06;;;;;;;0.30;0.30;;;29.80;99.90;35.10;102176.00;;;;5047781;28;20186;-72
2023/08/20 11:28:52;;;;;;;0.45;0.43;;;30.60;99.90;31.70;102193.00;;;;5048581;28;20205;-73
2023/08/20 11:31:28;;;;;;;0.10;0.10;;;29.60;99.90;34.40;102176.00;;;;5047505;28;20217;-72
2023/08/20 11:34:07;;;;;;;2.08;0.20;;;29.60;99.90;32.30;102204.00;;;;5039925;28;20185;-72
2023/08/20 11:36:46;;;;;;;0.10;0.10;;;29.60;99.90;35.60;102178.00;;;;5048127;28;20203;-73
2023/08/20 11:39:15;;;;;;;0.57;0.57;;;30.50;99.90;34.00;102190.00;;;;5047932;28;20269;-73
2023/08/20 11:42:02;;;;;;;3.90;0.52;;;30.50;99.90;35.80;102170.00;;;;5047535;28;20273;-72
2023/08/20 11:44:43;;;;;;;0.10;0.10;;;30.70;99.90;35.80;102128.00;;;;5036658;28;20218;-72
2023/08/20 11:47:39;;;;;;;0.20;0.20;;;31.20;99.90;36.50;102171.00;;;;5018235;28;20217;-73
2023/08/20 11:50:09;;;;;;;0.43;0.43;;;31.70;99.90;36.30;102175.00;;;;5054779;28;20175;-73
2023/08/20 11:53:01;;;;;;;0.10;0.10;;;31.60;99.90;34.00;102198.00;;;;5017801;28;20202;-73
2023/08/20 11:55:30;;;;;;;0.10;0.10;;;31.30;99.90;36.20;102183.00;;;;5035769;28;20194;-73
2023/08/20 11:58:19;;;;;;;0.10;0.10;;;31.20;99.90;37.00;102185.00;;;;5034249;28;20202;-74
2023/08/20 12:00:50;;;;;;;0.10;0.10;;;31.70;99.90;34.50;102200.00;;;;5034189;28;20186;-72
2023/08/20 12:03:37;;;;;;;0.10;0.10;;;31.10;99.90;36.20;102174.00;;;;5034938;28;20197;-73
2023/08/20 12:06:28;;;;;;;0.10;0.10;;;31.10;99.90;34.20;102139.00;;;;5029613;28;20183;-73
2023/08/20 12:09:01;;;;;;;0.40;0.25;;;30.70;99.90;33.30;102199.00;;;;5033290;28;20182;-72
2023/08/20 12:11:33;;;;;;;0.10;0.10;;;29.70;99.90;32.80;102210.00;;;;5034308;28;20202;-72
2023/08/20 12:14:05;;;;;;;1.10;1.10;;;29.20;99.90;34.80;102181.00;;;;5027006;28;20228;-72
2023/08/20 12:16:31;;;;;;;0.10;0.10;;;29.60;99.90;35.00;102185.00;;;;5033730;28;20187;-73
2023/08/20 12:19:18;;;;;;;0.10;0.10;;;30.00;99.90;35.90;102166.00;;;;5035290;28;20189;-72
2023/08/20 12:22:08;;;;;;;0.10;0.10;;;30.60;99.90;35.80;102171.00;;;;5019301;28;20278;-72
2023/08/20 12:24:55;;;;;;;0.10;0.10;;;31.00;99.90;36.90;102173.00;;;;5033555;28;20191;-73
2023/08/20 12:27:33;;;;;;;0.10;0.10;;;31.50;99.90;36.40;102167.00;;;;4996010;28;20195;-72
2023/08/20 12:30:16;;;;;;;0.10;0.10;;;31.40;99.90;33.80;102185.00;;;;5030812;28;20213;-72
2023/08/20 12:32:48;;;;;;;0.10;0.10;;;30.70;99.90;34.40;102191.00;;;;5033036;28;20214;-72
2023/08/20 12:35:23;;;;;;;0.40;0.40;;;30.00;99.90;34.50;102189.00;;;;5034933;28;20183;-73
2023/08/20 12:37:57;;;;;;;0.10;0.10;;;30.30;99.90;35.90;102177.00;;;;5019200;28;20662;-73
2023/08/20 12:40:32;;;;;;;0.30;0.30;;;30.80;99.90;34.10;102159.00;;;;5033135;28;20724;-72
2023/08/20 12:43:19;;;;;;;0.10;0.10;;;30.70;99.90;36.00;102179.00;;;;5013064;28;20277;-73
2023/08/20 12:45:50;;;;;;;0.30;0.30;;;30.80;99.90;36.10;102182.00;;;;5058056;28;20268;-72
2023/08/20 12:48:27;;;;;;;0.10;0.10;;;31.10;99.90;36.80;102167.00;;;;5033373;28;20229;-73
2023/08/20 12:50:59;;;;;;;0.73;0.73;;;31.50;99.90;36.50;102167.00;;;;5027183;28;20473;-72
2023/08/20 12:53:36;;;;;;;0.10;0.10;;;31.70;99.90;36.60;102170.00;;;;5033357;28;20696;-72
2023/08/20 12:56:14;;;;;;;0.10;0.10;;;31.40;99.90;33.90;102185.00;;;;5032025;28;20178;-71
2023/08/20 12:58:45;;;;;;;0.10;0.10;;;30.20;99.90;34.50;102178.00;;;;5032944;28;20191;-73
2023/08/20 13:01:19;;;;;;;0.10;0.10;;;30.30;99.90;33.80;102175.00;;;;5032953;28;20691;-72
2023/08/20 13:03:50;;;;;;;0.47;0.32;;;30.20;99.90;34.60;102171.00;;;;5029089;28;20189;-72
2023/08/20 13:06:20;;;;;;;0.10;0.10;;;30.40;99.90;32.80;102190.00;;;;5028461;28;20724;-72
2023/08/20 13:08:49;;;;;;;0.10;0.10;;;29.20;99.90;34.70;102173.00;;;;5033253;28;20244;-73
2023/08/20 13:11:36;;;;;;;0.20;0.20;;;29.60;99.90;33.80;102179.00;;;;5032820;28;20194;-72
2023/08/20 13:14:08;;;;;;;0.30;0.30;;;29.80;99.90;34.60;102174.00;;;;5032904;28;20179;-72
2023/08/20 13:16:40;;;;;;;0.13;0.13;;;29.80;99.90;34.40;102177.00;;;;5016277;28;20175;-72
2023/08/20 13:19:29;;;;;;;0.17;0.17;;;29.80;99.90;34.50;102184.00;;;;5032626;28;20221;-72
2023/08/20 13:22:26;;;;;;;0.10;0.10;;;29.90;99.90;34.80;102171.00;;;;5031734;28;20569;-72
2023/08/20 13:25:13;;;;;;;0.10;0.10;;;30.30;99.90;35.50;102170.00;;;;5029028;28;20241;-72
2023/08/20 13:27:47;;;;;;;0.63;0.50;;;30.50;99.90;34.50;102183.00;;;;5028281;28;20621;-72
2023/08/20 13:30:17;;;;;;;0.20;0.20;;;30.30;99.90;35.70;102179.00;;;;5032655;28;20233;-73
2023/08/20 13:32:46;;;;;;;0.10;0.10;;;30.70;99.90;35.10;102184.00;;;;5032150;28;20249;-73
2023/08/20 13:35:22;;;;;;;0.20;0.20;;;30.60;99.90;33.10;102192.00;;;;5032300;28;20186;-72
2023/08/20 13:37:48;;;;;;;0.10;0.10;;;29.40;99.90;33.30;102156.00;;;;5015859;28;20541;-73
2023/08/20 13:40:20;;;;;;;0.10;0.10;;;29.30;99.90;33.40;102152.00;;;;5013252;28;20187;-73
2023/08/20 13:43:09;;;;;;;0.10;0.10;;;29.30;99.90;34.80;102176.00;;;;5032747;28;20190;-73
2023/08/20 13:45:43;;;;;;;0.10;0.10;;;29.60;99.90;35.10;102174.00;;;;5027408;28;20229;-73
2023/08/20 13:48:12;;;;;;;0.10;0.10;;;29.80;99.90;34.70;102139.00;;;;5032420;28;20547;-73
2023/08/20 13:50:46;;;;;;;0.10;0.10;;;29.90;99.90;35.10;102169.00;;;;5015814;28;20541;-74
2023/08/20 13:53:20;;;;;;;0.25;0.25;;;30.10;99.90;32.60;102188.00;;;;5032332;28;20206;-73
2023/08/20 13:55:52;;;;;;;0.10;0.10;;;29.30;99.90;34.50;102180.00;;;;5032267;28;20181;-73
2023/08/20 13:58:20;;;;;;;0.38;0.38;;;29.50;99.90;34.10;102183.00;;;;5015836;28;20320;-73
2023/08/20 14:00:49;;;;;;;0.20;0.20;;;29.60;99.90;34.20;102174.00;;;;5032128;28;20197;-73
2023/08/20 14:03:24;;;;;;;0.10;0.10;;;29.50;99.90;34.10;102186.00;;;;5031792;28;20195;-73
2023/08/20 14:06:04;;;;;;;0.75;0.20;;;29.50;99.90;34.80;102160.00;;;;5013860;28;20550;-73
2023/08/20 14:08:35;;;;;;;0.10;0.10;;;29.80;99.90;33.80;102169.00;;;;5032864;28;20186;-73
2023/08/20 14:11:03;;;;;;;0.38;0.20;;;29.30;99.90;34.90;102181.00;;;;5031822;28;20185;-73
2023/08/20 14:13:38;;;;;;;0.10;0.10;;;29.90;99.90;33.60;102160.00;;;;5031601;28;20210;-73
2023/08/20 14:16:04;;;;;;;0.30;0.30;;;29.80;99.90;32.90;102185.00;;;;5032053;28;20185;-73
2023/08/20 14:18:30;;;;;;;0.10;0.10;;;28.90;99.90;34.40;102146.00;;;;5031772;28;20187;-73
2023/08/20 14:20:57;;;;;;;0.10;0.10;;;29.30;99.90;34.10;102186.00;;;;5031985;28;20701;-72
2023/08/20 14:23:26;;;;;;;0.10;0.10;;;29.50;99.90;33.40;102192.00;;;;5029603;28;20664;-73
2023/08/20 14:26:01;;;;;;;0.43;0.43;;;29.40;99.90;33.20;102203.00;;;;5031982;28;20182;-73
2023/08/20 14:28:33;;;;;;;0.30;0.30;;;28.90;99.90;32.20;102204.00;;;;5044927;28;20186;-73
2023/08/20 14:31:03;;;;;;;0.10;0.10;;;28.70;99.90;33.10;102189.00;;;;5048162;28;20190;-73
2023/08/20 14:33:41;;;;;;;0.10;0.10;;;28.50;99.90;33.10;102183.00;;;;5031809;28;20198;-73
2023/08/20 14:36:07;;;;;;;0.10;0.10;;;28.70;99.90;34.20;102139.00;;;;5015643;28;20191;-73
2023/08/20 14:38:44;;;;;;;0.20;0.20;;;29.00;99.90;32.00;102183.00;;;;5032747;28;20194;-73
2023/08/20 14:41:16;;;;;;;0.10;0.10;;;28.70;99.90;32.90;102184.00;;;;5031188;28;20183;-73
2023/08/20 14:43:53;;;;;;;0.10;0.10;;;28.50;99.90;33.30;102186.00;;;;5015091;28;20183;-73
2023/08/20 14:46:19;;;;;;;0.20;0.20;;;28.70;99.90;34.30;102177.00;;;;5031454;28;20666;-73
2023/08/20 14:48:45;;;;;;;0.10;0.10;;;29.10;99.90;32.70;102171.00;;;;5025690;28;20191;-74
2023/08/20 14:51:16;;;;;;;0.10;0.10;;;28.80;99.90;32.70;102187.00;;;;5031298;28;20641;-73
2023/08/20 14:53:43;;;;;;;0.25;0.20;;;28.40;99.90;32.10;102191.00;;;;5030793;28;20179;-72
2023/08/20 14:56:11;;;;;;;0.20;0.20;;;28.40;99.90;31.70;102175.00;;;;5031447;28;20182;-72
2023/08/20 14:58:40;;;;;;;0.57;0.35;;;28.00;99.90;32.90;102171.00;;;;5031272;28;20528;-72
2023/08/20 15:01:27;;;;;;;0.38;0.38;;;28.30;99.90;32.60;102173.00;;;;5015549;28;20214;-72
2023/08/20 15:03:56;;;;;;;0.35;0.35;;;28.30;99.90;33.10;102161.00;;;;5028977;28;20280;-73
2023/08/20 15:06:24;;;;;;;0.10;0.10;;;28.60;99.90;31.90;102187.00;;;;5032429;28;20264;-72
2023/08/20 15:08:59;;;;;;;0.25;0.25;;;28.20;99.90;31.30;102179.00;;;;5015108;28;20240;-72
2023/08/20 15:11:25;;;;;;;0.10;0.10;;;27.70;99.90;32.10;102171.00;;;;5028354;28;20187;-72
2023/08/20 15:13:53;;;;;;;0.20;0.20;;;27.70;99.90;31.90;102130.00;;;;5022371;28;20190;-73
2023/08/20 15:16:31;;;;;;;0.73;0.40;;;27.90;99.90;30.40;102185.00;;;;5014614;28;20663;-73
2023/08/20 15:19:02;;;;;;;1.70;0.60;;;27.40;99.90;30.90;102182.00;;;;5032991;28;20179;-71
2023/08/20 15:21:39;;;;;;;0.10;0.10;;;27.30;99.90;31.10;102184.00;;;;5018206;28;20253;-72
2023/08/20 15:24:05;;;;;;;0.10;0.10;;;27.20;99.90;30.80;102177.00;;;;5034870;28;20205;-72
2023/08/20 15:26:37;;;;;;;0.20;0.20;;;27.30;99.90;31.90;102161.00;;;;5034874;28;20187;-74
2023/08/20 15:29:12;;;;;;;0.28;0.28;;;27.30;99.90;31.50;102176.00;;;;5035020;28;20198;-72
2023/08/20 15:31:38;;;;;;;0.22;0.22;;;27.60;99.90;31.40;102162.00;;;;5018457;28;20222;-72
2023/08/20 15:34:22;;;;;;;2.17;0.22;;;27.50;99.90;31.60;102160.00;;;;5031810;28;20314;-73
2023/08/20 15:36:57;;;;;;;0.32;0.32;;;27.30;99.90;31.00;102162.00;;;;5032540;28;20182;-72
2023/08/20 15:39:25;;;;;;;0.20;0.20;;;27.10;99.90;31.20;102161.00;;;;5034518;28;20272;-72
2023/08/20 15:41:54;;;;;;;0.10;0.10;;;27.00;99.90;31.30;102114.00;;;;5034470;28;20269;-72
2023/08/20 15:44:22;;;;;;;0.20;0.20;;;27.10;99.90;32.10;102152.00;;;;5035854;28;20187;-72
2023/08/20 15:46:54;;;;;;;0.10;0.10;;;27.30;99.90;32.50;102146.00;;;;5034145;28;20179;-73
2023/08/20 15:49:23;;;;;;;0.20;0.20;;;27.60;99.90;32.10;102160.00;;;;5034877;28;20185;-72
2023/08/20 15:52:00;;;;;;;0.65;0.65;;;27.70;99.90;32.20;102168.00;;;;5033922;28;20207;-73
2023/08/20 15:54:49;;;;;;;0.30;0.30;;;27.60;99.90;30.50;102183.00;;;;5034277;28;20195;-72
2023/08/20 15:57:36;;;;;;;0.20;0.20;;;27.20;99.90;31.10;102187.00;;;;5034202;28;20198;-72
2023/08/20 16:00:03;;;;;;;3.78;0.43;;;27.10;99.90;31.30;102157.00;;;;5027326;28;20252;-72
2023/08/20 16:02:29;;;;;;;0.25;0.25;;;27.10;99.90;31.70;102173.00;;;;5034109;28;20197;-72
2023/08/20 16:05:00;;;;;;;0.50;0.50;;;27.20;99.90;31.60;102172.00;;;;5017593;28;20182;-73
2023/08/20 16:07:25;;;;;;;0.20;0.20;;;27.10;99.90;31.30;102164.00;;;;5035489;28;20230;-72
2023/08/20 16:10:04;;;;;;;0.20;0.20;;;27.20;99.90;31.00;102184.00;;;;5035576;28;20183;-70
2023/08/20 16:12:44;;;;;;;0.35;0.35;;;27.00;99.90;31.80;102168.00;;;;5034522;28;20289;-70
2023/08/20 16:15:18;;;;;;;0.30;0.30;;;27.10;99.90;31.50;102145.00;;;;5028264;28;20183;-71
2023/08/20 16:17:44;;;;;;;0.20;0.20;;;27.20;99.90;31.20;102151.00;;;;5034006;28;20551;-71
2023/08/20 16:20:11;;;;;;;0.68;0.68;;;27.00;99.90;31.60;102164.00;;;;5034050;28;20217;-70
2023/08/20 16:22:42;;;;;;;0.20;0.20;;;27.00;99.90;31.70;102158.00;;;;5034187;28;20269;-70
2023/08/20 16:25:14;;;;;;;0.20;0.20;;;27.10;99.90;31.30;102121.00;;;;5018345;28;20616;-71
2023/08/20 16:27:40;;;;;;;0.43;0.43;;;27.00;99.90;30.20;102135.00;;;;5033609;28;20214;-70
2023/08/20 16:30:11;;;;;;;0.30;0.30;;;26.80;99.90;29.80;102165.00;;;;5033776;28;20210;-71
2023/08/20 16:32:37;;;;;;;0.77;0.77;;;26.40;99.90;30.90;102121.00;;;;5033877;28;20619;-70
2023/08/20 16:35:07;;;;;;;0.40;0.40;;;26.50;99.90;30.70;102158.00;;;;5033459;28;20663;-70
2023/08/20 16:37:42;;;;;;;0.20;0.20;;;26.60;99.90;30.30;102161.00;;;;5033586;28;20182;-70
2023/08/20 16:40:29;;;;;;;0.20;0.20;;;26.50;99.90;30.80;102160.00;;;;5033778;28;20332;-72
2023/08/20 16:43:01;;;;;;;0.60;0.60;;;26.60;99.90;30.20;102174.00;;;;5065748;28;20198;-72
2023/08/20 16:45:30;;;;;;;0.80;0.50;;;26.40;99.90;30.20;102157.00;;;;5059484;28;20194;-72
2023/08/20 16:47:57;;;;;;;0.95;0.63;;;26.20;99.90;30.20;102161.00;;;;5034077;28;20223;-72
2023/08/20 16:50:22;;;;;;;0.55;0.55;;;26.20;99.90;30.40;102160.00;;;;5016840;28;20550;-73
2023/08/20 16:52:51;;;;;;;1.45;0.80;;;26.40;99.90;29.50;102167.00;;;;5033407;28;20195;-72
2023/08/20 16:55:28;;;;;;;0.52;0.52;;;26.10;99.90;29.50;102147.00;;;;5034732;28;20187;-72
2023/08/20 16:57:57;;;;;;;0.30;0.30;;;25.90;99.90;30.10;102146.00;;;;5033077;28;20210;-72
2023/08/20 17:00:26;;;;;;;0.20;0.20;;;25.80;99.90;30.00;102131.00;;;;5034782;28;20187;-73
2023/08/20 17:02:52;;;;;;;0.10;0.10;;;25.70;99.90;30.00;102145.00;;;;5033751;28;20198;-72
2023/08/20 17:05:28;;;;;;;0.38;0.38;;;25.80;99.90;31.00;102133.00;;;;5033098;28;20194;-72
2023/08/20 17:07:54;;;;;;;0.20;0.20;;;26.10;99.90;30.10;102154.00;;;;5032865;28;20189;-72
2023/08/20 17:10:24;;;;;;;0.10;0.10;;;26.00;99.90;29.90;102156.00;;;;5029757;28;20657;-73
2023/08/20 17:12:53;;;;;;;1.50;0.25;;;25.80;99.90;30.10;102145.00;;;;5049279;28;20630;-72
2023/08/20 17:15:28;;;;;;;0.10;0.10;;;25.80;99.90;29.90;102160.00;;;;5032920;28;20237;-73
2023/08/20 17:18:04;;;;;;;0.20;0.20;;;25.80;99.90;30.40;102151.00;;;;5016012;28;20186;-73
2023/08/20 17:20:36;;;;;;;1.65;0.52;;;25.90;99.90;29.20;102172.00;;;;5033189;28;20606;-73
2023/08/20 17:23:05;;;;;;;0.10;0.10;;;25.60;99.90;30.10;102152.00;;;;5032664;28;20185;-74
2023/08/20 17:25:31;;;;;;;0.10;0.10;;;25.70;99.90;28.60;102171.00;;;;5032987;28;20191;-73
2023/08/20 17:28:08;;;;;;;0.20;0.20;;;25.30;99.90;28.60;102117.00;;;;5029201;28;20275;-72
2023/08/20 17:30:37;;;;;;;1.73;1.60;;;25.20;99.90;29.00;102134.00;;;;5064697;28;20237;-73
2023/08/20 17:33:09;;;;;;;0.45;0.40;;;25.20;99.90;28.70;102151.00;;;;5033089;28;20210;-73
2023/08/20 17:35:52;;;;;;;0.40;0.40;;;25.20;99.90;28.70;102146.00;;;;5028562;28;20616;-72
2023/08/20 17:38:24;;;;;;;0.20;0.20;;;25.10;99.90;28.90;102134.00;;;;5032496;28;20207;-73
2023/08/20 17:40:50;;;;;;;0.20;0.20;;;24.90;99.90;29.20;102139.00;;;;5028734;28;20183;-73
2023/08/20 17:43:16;;;;;;;0.30;0.30;;;25.00;99.90;28.40;102136.00;;;;5032569;28;20199;-72
2023/08/20 17:45:42;;;;;;;0.50;0.45;;;24.90;99.90;28.50;102146.00;;;;5033673;28;20187;-72
2023/08/20 17:48:08;;;;;;;11.88;0.50;;;24.90;99.90;28.40;102143.00;;;;5031886;28;20270;-72
2023/08/20 17:51:02;;;;;;;0.40;0.40;;;24.80;99.90;28.80;102122.00;;;;5033657;28;20713;-73
2023/08/20 17:53:50;;;;;;;0.20;0.20;;;24.90;99.90;29.10;102144.00;;;;5028571;28;20203;-73
2023/08/20 17:56:24;;;;;;;0.10;0.10;;;25.00;99.90;29.70;102145.00;;;;5045427;28;20229;-70
2023/08/20 17:58:50;;;;;;;0.20;0.20;;;25.10;99.90;29.20;102152.00;;;;5033332;28;20220;-73
2023/08/20 18:01:16;;;;;;;0.20;0.20;;;25.20;99.90;28.90;102154.00;;;;5032002;28;20222;-73
2023/08/20 18:03:45;;;;;;;1.30;0.32;;;25.10;99.90;28.70;102157.00;;;;5033366;28;20577;-73
2023/08/20 18:06:16;;;;;;;0.10;0.10;;;25.00;99.90;29.00;102159.00;;;;5032454;28;20187;-73
2023/08/20 18:08:45;;;;;;;0.20;0.20;;;25.00;99.90;29.20;102148.00;;;;5031936;28;20198;-73
2023/08/20 18:11:13;;;;;;;0.20;0.20;;;24.90;99.90;29.20;102157.00;;;;5032143;28;20190;-74
2023/08/20 18:13:48;;;;;;;0.30;0.30;;;25.00;99.90;29.10;102156.00;;;;5032978;28;20201;-73
2023/08/20 18:16:17;;;;;;;0.20;0.20;;;25.10;99.90;29.00;102169.00;;;;5015191;28;20190;-72
2023/08/20 18:18:46;;;;;;;0.20;0.20;;;25.00;99.90;29.70;102164.00;;;;5033163;28;20264;-72
2023/08/20 18:21:15;;;;;;;0.20;0.20;;;25.00;99.90;29.10;102156.00;;;;5006174;28;20183;-73
2023/08/20 18:23:43;;;;;;;0.28;0.20;;;25.10;99.90;28.60;102162.00;;;;5033087;28;20194;-73
2023/08/20 18:26:12;;;;;;;0.43;0.43;;;25.00;99.90;29.60;102154.00;;;;5033006;28;20179;-72